Time;durP1;ratioP1;P1;durP2;ratioP2;P2;SDS_P1;SDS_P2;PMS_P1;PMS_P2;Temp;Humidity;BMP_temperature;BMP_pressure;BME280_temperature;BME280_humidity;BME280_pressure;Samples;Min_cycle;Max_cycle;Signal;HPM_P1;HPM_P2
2021/05/02 00:00:29;;;;;;;37.17;26.13;;;6.90;99.90;;;;;;4934167;28;20485;-83
2021/05/02 00:02:55;;;;;;;36.00;25.50;;;6.90;99.90;;;;;;4918172;29;20812;-84
2021/05/02 00:05:22;;;;;;;34.90;25.70;;;6.80;99.90;;;;;;4936562;28;20991;-83
2021/05/02 00:07:49;;;;;;;37.40;26.40;;;6.80;99.90;;;;;;4935853;28;20489;-83
2021/05/02 00:10:17;;;;;;;37.93;26.97;;;6.90;99.90;;;;;;4938262;28;20774;-84
2021/05/02 00:12:43;;;;;;;36.30;27.20;;;6.80;99.90;;;;;;4936282;28;20459;-83
2021/05/02 00:15:12;;;;;;;35.00;26.50;;;6.80;99.90;;;;;;4937372;28;20464;-83
2021/05/02 00:17:40;;;;;;;36.90;26.87;;;6.80;99.90;;;;;;4936217;28;20459;-85
2021/05/02 00:20:08;;;;;;;36.63;26.73;;;6.90;99.90;;;;;;4938823;28;20452;-83
2021/05/02 00:22:36;;;;;;;40.17;27.00;;;6.90;99.90;;;;;;4956529;28;20541;-83
2021/05/02 00:25:05;;;;;;;37.13;27.10;;;6.90;99.90;;;;;;4939674;28;20478;-83
2021/05/02 00:27:33;;;;;;;35.97;25.77;;;6.80;99.90;;;;;;4937125;28;20482;-84
2021/05/02 00:29:59;;;;;;;36.20;25.80;;;6.90;99.90;;;;;;4938288;28;20450;-84
2021/05/02 00:32:27;;;;;;;37.17;26.80;;;6.80;99.90;;;;;;4940877;28;20491;-84
2021/05/02 00:34:54;;;;;;;34.90;26.10;;;6.80;99.90;;;;;;4938773;28;20485;-84
2021/05/02 00:37:20;;;;;;;35.20;25.70;;;6.80;99.90;;;;;;4934142;28;20466;-84
2021/05/02 00:39:46;;;;;;;32.90;23.60;;;6.80;99.90;;;;;;4935955;28;20810;-84
2021/05/02 00:42:24;;;;;;;29.43;23.30;;;6.80;99.90;;;;;;4940679;28;20482;-84
2021/05/02 00:44:51;;;;;;;36.03;24.77;;;6.80;99.90;;;;;;4969905;28;20980;-84
2021/05/02 00:47:23;;;;;;;33.37;24.60;;;6.70;99.90;;;;;;4937104;28;20454;-84
2021/05/02 00:49:57;;;;;;;32.97;25.80;;;6.70;99.90;;;;;;4953967;28;20505;-84
2021/05/02 00:53:03;;;;;;;30.30;23.50;;;6.70;99.90;;;;;;4941969;28;20459;-85
2021/05/02 00:55:46;;;;;;;33.37;24.43;;;6.70;99.90;;;;;;4939435;28;20468;-84
2021/05/02 00:58:32;;;;;;;29.03;23.87;;;6.60;99.90;;;;;;4938691;28;20446;-84
2021/05/02 01:01:00;;;;;;;34.17;23.60;;;6.60;99.90;;;;;;4938828;28;20453;-84
2021/05/02 01:03:30;;;;;;;34.30;25.23;;;6.60;99.90;;;;;;4938822;28;20446;-85
2021/05/02 01:05:59;;;;;;;34.10;25.57;;;6.60;99.90;;;;;;4939839;28;20833;-84
2021/05/02 01:08:28;;;;;;;31.80;22.87;;;6.60;99.90;;;;;;4942474;28;21075;-84
2021/05/02 01:10:57;;;;;;;33.90;25.80;;;6.60;99.90;;;;;;4937559;28;20969;-84
2021/05/02 01:13:26;;;;;;;32.63;23.90;;;6.50;99.90;;;;;;4934777;28;20858;-84
2021/05/02 01:15:53;;;;;;;32.83;24.80;;;6.50;99.90;;;;;;4935520;28;20812;-83
2021/05/02 01:18:20;;;;;;;31.13;23.90;;;6.60;99.90;;;;;;4937054;28;20454;-83
2021/05/02 01:20:46;;;;;;;33.67;25.83;;;6.50;99.90;;;;;;4926938;28;20884;-84
2021/05/02 01:23:17;;;;;;;33.70;24.23;;;6.50;99.90;;;;;;4931976;28;20450;-84
2021/05/02 01:25:43;;;;;;;31.73;25.70;;;6.50;99.90;;;;;;4931573;28;20190;-83
2021/05/02 01:28:09;;;;;;;31.17;24.93;;;6.50;99.90;;;;;;4935784;28;20485;-83
2021/05/02 01:30:36;;;;;;;32.70;25.57;;;6.50;99.90;;;;;;4963495;28;20210;-84
2021/05/02 01:33:02;;;;;;;37.43;26.87;;;6.50;99.90;;;;;;4939353;28;20550;-83
2021/05/02 01:35:27;;;;;;;33.83;27.10;;;6.50;99.90;;;;;;4938343;28;20945;-83
2021/05/02 01:37:53;;;;;;;33.67;26.70;;;6.50;99.90;;;;;;4933217;28;20195;-83
2021/05/02 01:40:20;;;;;;;36.03;28.20;;;6.50;99.90;;;;;;4936478;28;20221;-83
2021/05/02 01:42:46;;;;;;;33.77;26.10;;;6.60;99.90;;;;;;4948164;28;20446;-84
2021/05/02 01:45:12;;;;;;;32.20;26.43;;;6.60;99.90;;;;;;4937985;28;20887;-84
2021/05/02 01:47:43;;;;;;;35.20;27.00;;;6.60;99.90;;;;;;4933334;28;20474;-84
2021/05/02 01:50:11;;;;;;;34.50;26.03;;;6.70;99.90;;;;;;4936890;28;20525;-84
2021/05/02 01:52:52;;;;;;;37.33;28.10;;;6.60;99.90;;;;;;4933021;28;20501;-83
2021/05/02 01:55:19;;;;;;;36.43;28.10;;;6.60;99.90;;;;;;4933669;28;20494;-83
2021/05/02 01:57:47;;;;;;;36.60;27.47;;;6.70;99.90;;;;;;4935165;28;20976;-84
2021/05/02 02:00:40;;;;;;;36.63;28.33;;;6.60;99.90;;;;;;4941091;28;20451;-83
2021/05/02 02:03:06;;;;;;;33.87;26.90;;;6.60;99.90;;;;;;4934860;28;20457;-83
2021/05/02 02:05:32;;;;;;;36.33;27.90;;;6.60;99.90;;;;;;4936296;28;20457;-83
2021/05/02 02:08:00;;;;;;;34.50;26.80;;;6.70;99.90;;;;;;4941834;28;20827;-83
2021/05/02 02:10:26;;;;;;;38.07;27.60;;;6.60;99.90;;;;;;4938376;28;20532;-83
2021/05/02 02:12:52;;;;;;;35.53;27.67;;;6.60;99.90;;;;;;4936925;28;21229;-82
2021/05/02 02:15:19;;;;;;;34.77;26.57;;;6.70;99.90;;;;;;4931510;28;20206;-83
2021/05/02 02:17:45;;;;;;;36.00;26.27;;;6.60;99.90;;;;;;4933655;28;20869;-82
2021/05/02 02:20:12;;;;;;;35.70;26.27;;;6.70;99.90;;;;;;4936739;28;20471;-82
2021/05/02 02:22:39;;;;;;;32.47;25.00;;;6.70;99.90;;;;;;4930728;28;20794;-83
2021/05/02 02:25:07;;;;;;;32.13;25.20;;;6.70;99.90;;;;;;4962540;28;20641;-82
2021/05/02 02:27:33;;;;;;;33.43;24.47;;;6.70;99.90;;;;;;4931977;28;20484;-82
2021/05/02 02:30:06;;;;;;;30.90;24.80;;;6.70;99.90;;;;;;4937053;28;20454;-82
2021/05/02 02:32:42;;;;;;;32.60;24.57;;;6.70;99.90;;;;;;4963942;28;21202;-82
2021/05/02 02:35:08;;;;;;;32.83;24.73;;;6.60;99.90;;;;;;4960711;28;20458;-82
2021/05/02 02:37:38;;;;;;;30.50;24.83;;;6.60;99.90;;;;;;4948007;28;20447;-84
2021/05/02 02:40:06;;;;;;;31.10;23.57;;;6.60;99.90;;;;;;4934367;28;21991;-83
2021/05/02 02:42:35;;;;;;;31.70;24.37;;;6.50;99.90;;;;;;4936597;28;20529;-83
2021/05/02 02:45:08;;;;;;;33.20;27.23;;;6.50;99.90;;;;;;4928280;28;20442;-83
2021/05/02 02:47:48;;;;;;;34.20;25.20;;;6.50;99.90;;;;;;4933584;28;20466;-83
2021/05/02 02:50:17;;;;;;;34.43;26.67;;;6.50;99.90;;;;;;4934447;28;20443;-84
2021/05/02 02:52:49;;;;;;;34.80;26.80;;;6.50;99.90;;;;;;4936541;28;20450;-83
2021/05/02 02:55:21;;;;;;;34.30;27.17;;;6.40;99.90;;;;;;4935081;28;20439;-82
2021/05/02 02:57:57;;;;;;;38.10;28.60;;;6.40;99.90;;;;;;4933052;28;20929;-83
2021/05/02 03:00:28;;;;;;;36.40;28.00;;;6.40;99.90;;;;;;4933607;28;20825;-83
2021/05/02 03:03:08;;;;;;;38.00;28.63;;;6.40;99.90;;;;;;4933834;28;20504;-83
2021/05/02 03:05:36;;;;;;;34.43;27.73;;;6.40;99.90;;;;;;4949429;28;20454;-82
2021/05/02 03:08:10;;;;;;;37.63;29.17;;;6.30;99.90;;;;;;4936779;28;20531;-83
2021/05/02 03:10:40;;;;;;;36.07;28.73;;;6.30;99.90;;;;;;4938641;29;20443;-83
2021/05/02 03:13:07;;;;;;;35.07;28.30;;;6.30;99.90;;;;;;4936400;28;20444;-83
2021/05/02 03:15:33;;;;;;;37.70;29.27;;;6.40;99.90;;;;;;4932419;28;20454;-83
2021/05/02 03:18:07;;;;;;;37.77;30.60;;;6.30;99.90;;;;;;4934837;28;20455;-84
2021/05/02 03:20:38;;;;;;;42.60;30.67;;;6.30;99.90;;;;;;4933881;28;20912;-84
2021/05/02 03:23:06;;;;;;;35.97;28.07;;;6.30;99.90;;;;;;4931921;28;20477;-83
2021/05/02 03:25:35;;;;;;;40.70;30.23;;;6.30;99.90;;;;;;4934757;28;20479;-84
2021/05/02 03:28:04;;;;;;;35.43;27.10;;;6.30;99.90;;;;;;4935030;28;20567;-83
2021/05/02 03:30:30;;;;;;;39.40;28.93;;;6.30;99.90;;;;;;4931491;28;22404;-83
2021/05/02 03:32:57;;;;;;;37.80;29.70;;;6.30;99.90;;;;;;4934363;28;20525;-83
2021/05/02 03:35:31;;;;;;;37.80;28.87;;;6.30;99.90;;;;;;4931527;28;20450;-83
2021/05/02 03:38:22;;;;;;;39.43;29.27;;;6.30;99.90;;;;;;4934257;28;20450;-83
2021/05/02 03:40:54;;;;;;;41.13;29.93;;;6.30;99.90;;;;;;4933655;28;20444;-83
2021/05/02 03:43:19;;;;;;;36.73;28.70;;;6.30;99.90;;;;;;4935254;28;20459;-84
2021/05/02 03:45:45;;;;;;;40.90;29.40;;;6.30;99.90;;;;;;4931869;28;21441;-84
2021/05/02 03:48:10;;;;;;;35.37;28.10;;;6.30;99.90;;;;;;4935067;28;20613;-84
2021/05/02 03:50:36;;;;;;;36.13;27.50;;;6.30;99.90;;;;;;4937093;28;20775;-84
2021/05/02 03:53:03;;;;;;;36.60;27.13;;;6.30;99.90;;;;;;4930740;28;20186;-84
2021/05/02 03:55:38;;;;;;;33.10;26.77;;;6.30;99.90;;;;;;4932191;28;20249;-84
2021/05/02 03:58:11;;;;;;;32.30;27.47;;;6.40;99.90;;;;;;4931959;28;20804;-84
2021/05/02 04:00:38;;;;;;;36.23;28.43;;;6.40;99.90;;;;;;4950615;28;20469;-83
2021/05/02 04:03:04;;;;;;;34.07;26.90;;;6.40;99.90;;;;;;4930980;28;21253;-84
2021/05/02 04:05:30;;;;;;;34.00;27.43;;;6.40;99.90;;;;;;4933643;28;20446;-83
2021/05/02 04:07:56;;;;;;;33.83;28.53;;;6.40;99.90;;;;;;4931800;28;20575;-83
2021/05/02 04:10:22;;;;;;;33.13;26.40;;;6.30;99.90;;;;;;4936209;28;20207;-84
2021/05/02 04:12:48;;;;;;;32.70;26.50;;;6.40;99.90;;;;;;4933074;28;20558;-84
2021/05/02 04:15:14;;;;;;;31.97;25.87;;;6.40;99.90;;;;;;4935605;28;20439;-83
2021/05/02 04:17:39;;;;;;;33.17;27.83;;;6.40;99.90;;;;;;4933673;28;20211;-83
2021/05/02 04:20:06;;;;;;;34.77;28.40;;;6.40;99.90;;;;;;4936749;28;20719;-84
2021/05/02 04:22:31;;;;;;;32.43;26.63;;;6.40;99.90;;;;;;4923974;28;20279;-84
2021/05/02 04:24:57;;;;;;;31.00;26.40;;;6.30;99.90;;;;;;4933520;28;20462;-83
2021/05/02 04:27:23;;;;;;;30.67;24.50;;;6.30;99.90;;;;;;4932679;28;20654;-82
2021/05/02 04:29:49;;;;;;;33.60;27.40;;;6.20;99.90;;;;;;4933108;28;20365;-82
2021/05/02 04:32:15;;;;;;;33.30;27.53;;;6.30;99.90;;;;;;4933779;28;20538;-83
2021/05/02 04:34:41;;;;;;;30.60;25.67;;;6.30;99.90;;;;;;4931802;28;20185;-82
2021/05/02 04:37:06;;;;;;;32.57;27.10;;;6.30;99.90;;;;;;4928729;28;20901;-82
2021/05/02 04:39:32;;;;;;;35.07;27.33;;;6.30;99.90;;;;;;4935296;28;20187;-83
2021/05/02 04:41:58;;;;;;;30.53;24.40;;;6.30;99.90;;;;;;4932403;28;20967;-85
2021/05/02 04:44:28;;;;;;;34.73;27.50;;;6.30;99.90;;;;;;4933210;28;20219;-85
2021/05/02 04:46:53;;;;;;;29.17;25.93;;;6.30;99.90;;;;;;4932361;28;20450;-85
2021/05/02 04:49:22;;;;;;;35.50;27.47;;;6.30;99.90;;;;;;4937503;28;21090;-85
2021/05/02 04:51:48;;;;;;;33.47;28.13;;;6.30;99.90;;;;;;4937184;28;20471;-84
2021/05/02 04:54:13;;;;;;;31.60;26.47;;;6.20;99.90;;;;;;4940895;28;20509;-85
2021/05/02 04:56:40;;;;;;;31.67;25.40;;;6.30;99.90;;;;;;4938706;28;20199;-84
2021/05/02 04:59:09;;;;;;;37.40;28.40;;;6.30;99.90;;;;;;4935410;28;20189;-84
2021/05/02 05:01:36;;;;;;;33.00;27.23;;;6.30;99.90;;;;;;4936121;28;20509;-86
2021/05/02 05:04:06;;;;;;;35.90;26.87;;;6.40;99.90;;;;;;4934261;28;20578;-84
2021/05/02 05:06:34;;;;;;;34.40;28.00;;;6.40;99.90;;;;;;4933564;28;20861;-84
2021/05/02 05:09:00;;;;;;;30.40;27.10;;;6.40;99.90;;;;;;4938065;28;20509;-86
2021/05/02 05:11:28;;;;;;;32.67;26.90;;;6.50;99.90;;;;;;4937599;28;20917;-84
2021/05/02 05:13:54;;;;;;;31.73;26.97;;;6.50;99.90;;;;;;4934763;28;20513;-84
2021/05/02 05:16:19;;;;;;;34.63;27.60;;;6.50;99.90;;;;;;4936653;28;20436;-84
2021/05/02 05:18:45;;;;;;;35.27;29.90;;;6.40;99.90;;;;;;4939725;28;20251;-84
2021/05/02 05:21:11;;;;;;;32.40;27.80;;;6.50;99.90;;;;;;4933216;28;20855;-84
2021/05/02 05:23:39;;;;;;;32.97;28.30;;;6.40;99.90;;;;;;4937602;28;20197;-84
2021/05/02 05:26:05;;;;;;;32.43;27.13;;;6.50;99.90;;;;;;4932761;28;20191;-84
2021/05/02 05:28:30;;;;;;;35.37;28.23;;;6.60;99.90;;;;;;4932250;28;20835;-84
2021/05/02 05:30:56;;;;;;;32.23;26.73;;;6.50;99.90;;;;;;4934278;28;20534;-85
2021/05/02 05:33:27;;;;;;;31.73;26.70;;;6.50;99.90;;;;;;4938080;28;20553;-86
2021/05/02 05:35:52;;;;;;;31.63;26.23;;;6.50;99.90;;;;;;4932633;28;20269;-85
2021/05/02 05:38:18;;;;;;;30.93;25.63;;;6.60;99.90;;;;;;4937249;28;20484;-84
2021/05/02 05:40:44;;;;;;;33.13;26.67;;;6.60;99.90;;;;;;4934703;28;20242;-86
2021/05/02 05:43:09;;;;;;;31.63;26.13;;;6.50;99.90;;;;;;4938995;28;20738;-86
2021/05/02 05:45:35;;;;;;;32.50;26.43;;;6.50;99.90;;;;;;4932994;28;20187;-86
2021/05/02 05:48:01;;;;;;;29.43;25.83;;;6.50;99.90;;;;;;4941614;28;20240;-85
2021/05/02 05:50:28;;;;;;;34.33;27.70;;;6.40;99.90;;;;;;4938504;28;20242;-85
2021/05/02 05:52:55;;;;;;;30.87;25.20;;;6.60;99.90;;;;;;4937440;28;20562;-84
2021/05/02 05:55:21;;;;;;;29.50;26.00;;;6.60;99.90;;;;;;4936929;28;20446;-84
2021/05/02 05:57:49;;;;;;;29.90;26.07;;;6.80;99.90;;;;;;4951446;28;20542;-85
2021/05/02 06:00:16;;;;;;;31.40;26.70;;;6.80;99.90;;;;;;4935521;28;20463;-84
2021/05/02 06:02:42;;;;;;;31.40;26.03;;;6.90;99.90;;;;;;4933305;28;20528;-87
2021/05/02 06:05:08;;;;;;;29.90;25.87;;;7.00;99.90;;;;;;4938234;28;20439;-84
2021/05/02 06:07:34;;;;;;;29.10;23.60;;;7.00;99.90;;;;;;4936789;28;20498;-87
2021/05/02 06:09:59;;;;;;;27.17;24.27;;;7.10;99.90;;;;;;4934996;28;20451;-85
2021/05/02 06:12:25;;;;;;;29.80;23.97;;;7.10;99.90;;;;;;4936811;28;20185;-85
2021/05/02 06:14:51;;;;;;;32.57;25.67;;;7.10;99.90;;;;;;4937867;28;20214;-86
2021/05/02 06:17:16;;;;;;;28.17;25.07;;;7.20;99.90;;;;;;4935952;28;20197;-86
2021/05/02 06:19:42;;;;;;;30.40;24.70;;;7.10;99.90;;;;;;4935176;28;20191;-86
2021/05/02 06:22:09;;;;;;;28.00;23.83;;;7.20;99.90;;;;;;4935555;28;20235;-86
2021/05/02 06:24:37;;;;;;;27.20;23.87;;;7.20;99.90;;;;;;4938833;28;20974;-85
2021/05/02 06:27:12;;;;;;;27.23;24.17;;;7.30;99.90;;;;;;4938711;28;20483;-85
2021/05/02 06:29:38;;;;;;;28.17;24.60;;;7.30;99.90;;;;;;4935507;28;20465;-85
2021/05/02 06:32:04;;;;;;;30.30;25.70;;;7.20;99.90;;;;;;4939116;28;20767;-85
2021/05/02 06:34:30;;;;;;;27.63;24.60;;;7.30;99.90;;;;;;4935833;28;20617;-85
2021/05/02 06:36:59;;;;;;;28.53;25.50;;;7.40;99.90;;;;;;4934464;28;20806;-86
2021/05/02 06:39:28;;;;;;;28.60;24.80;;;7.50;99.90;;;;;;4937830;28;20599;-86
2021/05/02 06:41:54;;;;;;;28.10;24.53;;;7.70;99.90;;;;;;4934428;28;20457;-86
2021/05/02 06:44:20;;;;;;;31.20;26.07;;;7.50;99.90;;;;;;4938434;28;20453;-88
2021/05/02 06:46:46;;;;;;;29.03;25.43;;;7.60;99.90;;;;;;4933213;28;20820;-85
2021/05/02 06:49:12;;;;;;;27.30;23.73;;;7.70;99.90;;;;;;4935052;28;20493;-88
2021/05/02 06:51:38;;;;;;;26.47;23.60;;;7.70;99.90;;;;;;4932167;28;20198;-86
2021/05/02 06:54:06;;;;;;;26.47;23.63;;;7.60;99.90;;;;;;4935717;28;20903;-87
2021/05/02 06:56:31;;;;;;;27.03;24.17;;;7.70;99.90;;;;;;4936371;28;20915;-87
2021/05/02 06:58:57;;;;;;;28.10;25.00;;;7.60;99.90;;;;;;4936977;28;20457;-87
2021/05/02 07:01:23;;;;;;;25.70;22.97;;;7.80;99.90;;;;;;4936251;28;20452;-87
2021/05/02 07:03:50;;;;;;;26.43;23.43;;;8.10;99.90;;;;;;4921234;28;20242;-88
2021/05/02 07:06:16;;;;;;;23.93;21.23;;;8.40;99.90;;;;;;4935316;28;20520;-87
2021/05/02 07:08:42;;;;;;;23.97;21.47;;;8.50;99.90;;;;;;4936401;28;20498;-86
2021/05/02 07:11:08;;;;;;;24.90;22.30;;;8.20;99.90;;;;;;4934006;28;21033;-89
2021/05/02 07:13:34;;;;;;;25.20;22.50;;;8.30;99.90;;;;;;4932305;28;20289;-89
2021/05/02 07:16:00;;;;;;;25.57;22.87;;;8.50;99.90;;;;;;4930556;28;20650;-88
2021/05/02 07:18:33;;;;;;;24.80;22.20;;;8.60;99.90;;;;;;4934917;28;20512;-87
2021/05/02 07:20:59;;;;;;;27.13;22.80;;;8.70;99.90;;;;;;4932860;28;20686;-87
2021/05/02 07:23:25;;;;;;;26.20;23.10;;;8.70;99.90;;;;;;4933762;28;20613;-86
2021/05/02 07:25:50;;;;;;;23.27;20.83;;;8.40;99.90;;;;;;4932530;28;20225;-85
2021/05/02 07:28:16;;;;;;;24.87;22.37;;;8.30;99.90;;;;;;4933555;28;20229;-85
2021/05/02 07:30:42;;;;;;;24.10;21.50;;;8.30;99.90;;;;;;4933072;28;20732;-85
2021/05/02 07:33:10;;;;;;;24.30;21.70;;;8.30;99.90;;;;;;4933836;28;20207;-87
2021/05/02 07:35:49;;;;;;;23.80;21.30;;;8.30;99.90;;;;;;4934886;28;20604;-85
2021/05/02 07:38:15;;;;;;;24.20;21.53;;;8.40;99.90;;;;;;4931992;28;20465;-87
2021/05/02 07:40:41;;;;;;;24.43;21.73;;;8.40;99.90;;;;;;4933595;28;20525;-85
2021/05/02 07:43:31;;;;;;;21.13;18.93;;;8.40;99.90;;;;;;4927930;28;20836;-86
2021/05/02 07:46:21;;;;;;;23.50;20.33;;;8.40;99.90;;;;;;4932423;28;20460;-88
2021/05/02 07:48:57;;;;;;;23.10;20.70;;;8.50;99.90;;;;;;4960453;28;20475;-88
2021/05/02 07:51:23;;;;;;;23.23;20.93;;;8.60;99.90;;;;;;4930537;28;20442;-89
2021/05/02 07:53:49;;;;;;;22.77;20.37;;;8.70;99.90;;;;;;4936237;28;20431;-90
2021/05/02 07:56:15;;;;;;;22.50;19.60;;;9.10;99.90;;;;;;4931131;28;20194;-89
2021/05/02 07:58:41;;;;;;;22.77;20.43;;;9.50;99.90;;;;;;4935956;28;20199;-88
2021/05/02 08:01:07;;;;;;;22.40;20.10;;;9.50;99.90;;;;;;4933675;28;21123;-89
2021/05/02 08:03:32;;;;;;;21.10;18.90;;;9.60;99.90;;;;;;4936003;28;20272;-88
2021/05/02 08:05:58;;;;;;;22.10;19.70;;;9.90;99.90;;;;;;4929915;28;20198;-88
2021/05/02 08:08:24;;;;;;;20.43;18.43;;;10.00;99.90;;;;;;4931114;28;20219;-87
2021/05/02 08:10:51;;;;;;;21.30;19.10;;;9.90;99.90;;;;;;4924922;28;20276;-85
2021/05/02 08:13:19;;;;;;;19.50;17.50;;;10.30;99.90;;;;;;4931146;28;20228;-86
2021/05/02 08:15:45;;;;;;;25.87;23.30;;;10.30;99.90;;;;;;4914619;28;20874;-88
2021/05/02 08:18:15;;;;;;;20.90;18.73;;;9.90;99.90;;;;;;4928329;28;21270;-91
2021/05/02 08:20:41;;;;;;;23.07;20.63;;;9.80;99.90;;;;;;4929152;28;20538;-88
2021/05/02 08:23:08;;;;;;;20.93;17.97;;;9.60;99.90;;;;;;4919131;28;20467;-87
2021/05/02 08:25:37;;;;;;;20.47;18.37;;;9.50;99.90;;;;;;4928929;28;20679;-88
2021/05/02 08:28:04;;;;;;;19.50;17.43;;;9.60;99.90;;;;;;4934894;28;20484;-86
2021/05/02 08:30:32;;;;;;;20.47;18.37;;;9.70;99.90;;;;;;4932473;28;20479;-87
2021/05/02 08:32:59;;;;;;;20.00;17.67;;;9.80;99.90;;;;;;4916879;28;20472;-88
2021/05/02 08:35:25;;;;;;;21.30;19.00;;;9.70;99.90;;;;;;4929455;28;20864;-87
2021/05/02 08:37:51;;;;;;;20.83;18.63;;;9.70;99.90;;;;;;4930622;28;20968;-87
2021/05/02 08:40:17;;;;;;;20.57;18.47;;;9.60;99.90;;;;;;4919452;28;20445;-88
2021/05/02 08:42:43;;;;;;;19.83;17.90;;;9.60;99.90;;;;;;4913904;28;20207;-87
2021/05/02 08:45:15;;;;;;;19.13;17.23;;;9.50;99.90;;;;;;4933509;28;20198;-89
2021/05/02 08:47:50;;;;;;;18.27;16.47;;;9.50;99.90;;;;;;4929561;28;20491;-89
2021/05/02 08:50:20;;;;;;;20.37;17.87;;;9.20;99.90;;;;;;4931754;28;20461;-87
2021/05/02 08:52:48;;;;;;;20.90;18.87;;;9.20;99.90;;;;;;4928777;28;20450;-88
2021/05/02 08:55:15;;;;;;;20.17;18.03;;;9.10;99.90;;;;;;4934365;28;20702;-86
2021/05/02 09:01:32;;;;;;;20.53;18.50;;;9.40;99.90;;;;;;4932039;28;20458;-88
2021/05/02 09:04:08;;;;;;;20.53;18.43;;;9.70;99.90;;;;;;4929936;28;20457;-86
2021/05/02 09:06:37;;;;;;;19.30;17.40;;;10.20;99.90;;;;;;4914962;28;20464;-86
2021/05/02 09:09:12;;;;;;;19.77;17.80;;;10.10;99.90;;;;;;4935284;28;20511;-86
2021/05/02 09:11:46;;;;;;;20.87;17.37;;;10.30;99.90;;;;;;4956806;28;20527;-87
2021/05/02 09:14:20;;;;;;;19.77;17.87;;;10.50;99.90;;;;;;4930444;28;20750;-87
2021/05/02 09:16:55;;;;;;;19.73;17.73;;;10.70;99.90;;;;;;4927522;28;20457;-86
2021/05/02 09:19:24;;;;;;;19.30;17.40;;;10.80;99.90;;;;;;4926924;28;20941;-87
2021/05/02 09:21:54;;;;;;;18.13;16.23;;;10.80;99.90;;;;;;4931615;28;20454;-85
2021/05/02 09:24:33;;;;;;;18.70;17.00;;;10.90;99.90;;;;;;4931463;28;20450;-87
2021/05/02 09:27:16;;;;;;;19.70;17.80;;;10.90;99.90;;;;;;4918788;28;20486;-88
2021/05/02 09:29:46;;;;;;;19.60;17.80;;;11.30;99.90;;;;;;4932283;28;20577;-88
2021/05/02 09:32:19;;;;;;;18.63;16.73;;;11.50;99.90;;;;;;4914255;28;20447;-88
2021/05/02 09:34:54;;;;;;;20.00;18.07;;;11.30;99.90;;;;;;4929320;28;20496;-88
2021/05/02 09:37:30;;;;;;;18.90;17.10;;;11.00;99.90;;;;;;4930247;28;20996;-88
2021/05/02 09:40:00;;;;;;;20.60;18.60;;;10.90;99.90;;;;;;4928973;28;20455;-88
2021/05/02 09:42:32;;;;;;;19.00;17.20;;;10.90;99.90;;;;;;4929975;28;20462;-88
2021/05/02 09:45:01;;;;;;;17.73;15.90;;;10.90;99.90;;;;;;4929253;28;20505;-88
2021/05/02 09:47:34;;;;;;;17.20;15.63;;;11.00;99.90;;;;;;4914211;28;20815;-88
2021/05/02 09:50:30;;;;;;;19.20;17.40;;;11.40;99.90;;;;;;4928567;28;20807;-89
2021/05/02 09:53:14;;;;;;;18.47;16.77;;;11.30;99.90;;;;;;4929309;28;20551;-89
2021/05/02 09:55:43;;;;;;;16.93;15.30;;;10.80;99.90;;;;;;4923839;28;20482;-90
2021/05/02 09:58:22;;;;;;;17.33;15.63;;;10.70;99.90;;;;;;4925226;28;20446;-93
2021/05/02 10:00:53;;;;;;;18.47;16.67;;;10.90;99.80;;;;;;4942994;28;20490;-93
2021/05/02 10:03:31;;;;;;;17.83;16.23;;;11.50;99.90;;;;;;4933672;28;20458;-92
2021/05/02 10:06:35;;;;;;;17.77;15.97;;;12.20;97.70;;;;;;4932951;28;20855;-92
2021/05/02 10:09:06;;;;;;;18.07;16.13;;;12.50;97.00;;;;;;4929750;28;20861;-94
2021/05/02 10:12:05;;;;;;;18.73;16.93;;;12.80;97.90;;;;;;4937612;28;20739;-94
2021/05/02 10:14:34;;;;;;;19.80;17.90;;;12.40;95.90;;;;;;4931127;28;20450;-92
2021/05/02 10:17:01;;;;;;;18.10;16.30;;;12.20;96.80;;;;;;4928737;28;20553;-91
2021/05/02 10:19:28;;;;;;;17.40;15.80;;;11.90;96.80;;;;;;4932153;28;20458;-94
2021/05/02 10:21:58;;;;;;;18.13;16.20;;;11.60;96.30;;;;;;4931402;28;20589;-91
2021/05/02 10:24:24;;;;;;;17.07;15.47;;;11.10;96.60;;;;;;4931097;28;20461;-93
2021/05/02 10:26:54;;;;;;;17.00;15.50;;;10.90;96.80;;;;;;4916823;28;20528;-93
2021/05/02 10:29:32;;;;;;;17.67;15.97;;;11.20;96.60;;;;;;4916919;28;20486;-93
2021/05/02 10:32:10;;;;;;;17.70;15.83;;;11.40;97.20;;;;;;4920014;28;20517;-93
2021/05/02 10:34:42;;;;;;;16.93;15.33;;;11.70;97.10;;;;;;4907865;28;20486;-92
2021/05/02 10:37:28;;;;;;;16.63;14.77;;;12.20;96.70;;;;;;4933867;28;20493;-90
2021/05/02 10:40:08;;;;;;;16.60;15.13;;;12.10;94.30;;;;;;4933832;28;20438;-92
2021/05/02 10:42:54;;;;;;;16.80;15.10;;;13.00;94.40;;;;;;4926420;28;20451;-93
2021/05/02 10:45:54;;;;;;;16.80;15.30;;;13.70;94.40;;;;;;4934733;28;20510;-93
2021/05/02 10:51:34;;;;;;;18.10;16.40;;;13.10;92.70;;;;;;4930465;28;20455;-93
2021/05/02 10:54:10;;;;;;;16.27;14.97;;;12.80;94.10;;;;;;4920039;29;20796;-92
2021/05/02 10:56:57;;;;;;;17.30;15.70;;;12.70;93.40;;;;;;4933459;28;20458;-92
2021/05/02 10:59:56;;;;;;;15.83;14.33;;;12.70;92.90;;;;;;4919534;28;20509;-92
2021/05/02 11:02:48;;;;;;;16.37;14.87;;;12.30;90.40;;;;;;4925834;28;20438;-92
2021/05/02 11:05:48;;;;;;;15.97;14.57;;;12.20;91.40;;;;;;4929529;28;20992;-94
2021/05/02 11:08:15;;;;;;;16.73;15.13;;;11.90;91.80;;;;;;4934217;28;20522;-93
2021/05/02 11:10:55;;;;;;;15.93;14.43;;;11.90;91.40;;;;;;4930124;28;20446;-88
2021/05/02 11:13:28;;;;;;;16.87;15.17;;;12.20;91.10;;;;;;4933340;28;20468;-88
2021/05/02 11:15:54;;;;;;;15.63;14.17;;;12.90;90.90;;;;;;4942205;28;20579;-87
2021/05/02 11:18:24;;;;;;;16.33;14.83;;;13.10;89.30;;;;;;4917783;28;20450;-89
2021/05/02 11:20:51;;;;;;;17.47;15.77;;;12.70;88.40;;;;;;4929722;28;20451;-90
2021/05/02 11:23:19;;;;;;;16.10;14.67;;;12.90;90.20;;;;;;4932336;28;20474;-87
2021/05/02 11:25:59;;;;;;;16.63;15.03;;;13.60;88.50;;;;;;4933381;28;20451;-87
2021/05/02 11:28:45;;;;;;;17.03;15.43;;;13.60;84.90;;;;;;4915908;28;20578;-89
2021/05/02 11:31:18;;;;;;;16.63;15.03;;;13.20;87.60;;;;;;4928588;28;20871;-89
2021/05/02 11:33:46;;;;;;;16.93;15.10;;;13.80;85.80;;;;;;4932301;28;20481;-87
2021/05/02 11:36:54;;;;;;;17.10;15.57;;;14.10;88.00;;;;;;4912263;29;20467;-91
2021/05/02 11:39:29;;;;;;;17.73;16.00;;;13.70;85.00;;;;;;4935683;28;20497;-91
2021/05/02 11:42:06;;;;;;;17.03;15.47;;;14.30;85.40;;;;;;4933445;28;20533;-91
2021/05/02 11:44:34;;;;;;;19.57;17.77;;;14.10;84.70;;;;;;4929926;28;20202;-92
2021/05/02 11:47:09;;;;;;;19.23;17.50;;;14.60;92.00;;;;;;4932397;28;20459;-91
2021/05/02 11:49:38;;;;;;;19.90;18.10;;;15.20;93.30;;;;;;4931672;28;20532;-93
2021/05/02 11:52:05;;;;;;;18.47;16.97;;;15.50;93.00;;;;;;4933099;28;20494;-90
2021/05/02 11:54:47;;;;;;;18.20;16.70;;;15.60;91.50;;;;;;4930106;28;20844;-90
2021/05/02 11:57:14;;;;;;;18.77;17.17;;;15.30;89.40;;;;;;4926080;28;20461;-88
2021/05/02 11:59:51;;;;;;;16.53;15.10;;;14.10;85.80;;;;;;4935026;28;20450;-86
2021/05/02 12:02:17;;;;;;;14.80;13.50;;;12.50;90.70;;;;;;4923791;28;21101;-86
2021/05/02 12:04:45;;;;;;;14.17;12.97;;;11.50;95.00;;;;;;4935451;28;20473;-87
2021/05/02 12:07:13;;;;;;;14.10;12.87;;;10.90;97.80;;;;;;4935678;28;20457;-88
2021/05/02 12:09:44;;;;;;;15.80;14.23;;;10.60;99.90;;;;;;4935655;28;20489;-88
2021/05/02 12:12:11;;;;;;;18.20;16.50;;;10.60;99.90;;;;;;4934465;28;20509;-88
2021/05/02 12:14:38;;;;;;;20.23;18.52;;;10.80;99.90;;;;;;4936312;28;20452;-88
2021/05/02 12:17:07;;;;;;;19.40;17.57;;;10.80;99.90;;;;;;4921099;29;20190;-90
2021/05/02 12:19:34;;;;;;;18.27;16.53;;;10.70;99.90;;;;;;4921072;29;21099;-89
2021/05/02 12:22:09;;;;;;;20.07;18.33;;;10.70;99.90;;;;;;4935423;28;21003;-91
2021/05/02 12:24:36;;;;;;;19.97;18.20;;;10.50;99.90;;;;;;4936945;28;21906;-88
2021/05/02 12:27:11;;;;;;;16.47;14.83;;;10.40;99.90;;;;;;4936435;28;20516;-88
2021/05/02 12:29:40;;;;;;;13.77;12.47;;;10.30;99.90;;;;;;4936768;28;20512;-90
2021/05/02 12:32:09;;;;;;;14.63;13.23;;;9.80;99.90;;;;;;4935043;28;20451;-91
2021/05/02 12:34:50;;;;;;;16.10;14.57;;;9.60;99.90;;;;;;4937676;28;20495;-91
2021/05/02 12:37:21;;;;;;;15.73;14.23;;;9.60;99.90;;;;;;4935771;28;20448;-91
2021/05/02 12:40:06;;;;;;;17.00;15.50;;;9.60;99.90;;;;;;4936151;28;20460;-92
2021/05/02 12:42:36;;;;;;;16.10;14.60;;;9.80;99.90;;;;;;4929031;28;21146;-90
2021/05/02 12:45:40;;;;;;;14.63;13.23;;;9.80;99.90;;;;;;4933812;28;20452;-90
2021/05/02 12:48:12;;;;;;;14.73;13.23;;;9.70;99.90;;;;;;4933962;28;20488;-89
2021/05/02 12:50:46;;;;;;;14.67;13.27;;;9.50;99.90;;;;;;4950680;28;20444;-90
2021/05/02 12:53:54;;;;;;;14.90;13.47;;;9.00;99.90;;;;;;4932804;28;20497;-90
2021/05/02 12:57:09;;;;;;;14.93;13.53;;;8.80;99.90;;;;;;4934380;28;20442;-93